sensor_id;sensor_type;location;lat;lon;timestamp;P1;durP1;ratioP1;P2;durP2;ratioP2
68803;SDS011;55787;52.678;13.314;2022-12-18T00:01:19;42.08;;;10.68;;
68803;SDS011;55787;52.678;13.314;2022-12-18T00:03:54;45.23;;;11.87;;
68803;SDS011;55787;52.678;13.314;2022-12-18T00:06:22;45.33;;;11.75;;
68803;SDS011;55787;52.678;13.314;2022-12-18T00:08:50;41.22;;;10.88;;
68803;SDS011;55787;52.678;13.314;2022-12-18T00:11:18;34.72;;;10.20;;
68803;SDS011;55787;52.678;13.314;2022-12-18T00:13:47;28.85;;;7.93;;
68803;SDS011;55787;52.678;13.314;2022-12-18T00:16:15;42.13;;;11.50;;
68803;SDS011;55787;52.678;13.314;2022-12-18T00:18:47;37.78;;;10.18;;
68803;SDS011;55787;52.678;13.314;2022-12-18T00:21:14;39.85;;;10.38;;
68803;SDS011;55787;52.678;13.314;2022-12-18T00:23:42;34.47;;;7.88;;
68803;SDS011;55787;52.678;13.314;2022-12-18T00:26:11;44.13;;;11.25;;
68803;SDS011;55787;52.678;13.314;2022-12-18T00:28:43;47.33;;;10.47;;
68803;SDS011;55787;52.678;13.314;2022-12-18T00:31:12;39.72;;;10.10;;
68803;SDS011;55787;52.678;13.314;2022-12-18T00:33:41;21.92;;;6.00;;
68803;SDS011;55787;52.678;13.314;2022-12-18T00:36:10;41.10;;;11.13;;
68803;SDS011;55787;52.678;13.314;2022-12-18T00:38:38;39.53;;;11.02;;
68803;SDS011;55787;52.678;13.314;2022-12-18T00:41:06;40.63;;;10.10;;
68803;SDS011;55787;52.678;13.314;2022-12-18T00:43:33;44.90;;;9.40;;
68803;SDS011;55787;52.678;13.314;2022-12-18T00:46:01;34.25;;;9.00;;
68803;SDS011;55787;52.678;13.314;2022-12-18T00:48:28;41.70;;;10.02;;
68803;SDS011;55787;52.678;13.314;2022-12-18T00:50:55;37.85;;;9.80;;
68803;SDS011;55787;52.678;13.314;2022-12-18T00:53:22;44.43;;;10.90;;
68803;SDS011;55787;52.678;13.314;2022-12-18T00:55:49;43.63;;;10.98;;
68803;SDS011;55787;52.678;13.314;2022-12-18T00:58:16;43.45;;;10.23;;
68803;SDS011;55787;52.678;13.314;2022-12-18T01:00:43;29.02;;;7.65;;
68803;SDS011;55787;52.678;13.314;2022-12-18T01:03:12;41.88;;;9.77;;
68803;SDS011;55787;52.678;13.314;2022-12-18T01:05:40;34.60;;;9.60;;
68803;SDS011;55787;52.678;13.314;2022-12-18T01:08:08;43.05;;;10.73;;
68803;SDS011;55787;52.678;13.314;2022-12-18T01:10:35;35.67;;;8.90;;
68803;SDS011;55787;52.678;13.314;2022-12-18T01:13:01;40.22;;;9.85;;
68803;SDS011;55787;52.678;13.314;2022-12-18T01:15:28;46.22;;;9.90;;
68803;SDS011;55787;52.678;13.314;2022-12-18T01:17:55;41.90;;;9.40;;
68803;SDS011;55787;52.678;13.314;2022-12-18T01:20:21;40.85;;;10.23;;
68803;SDS011;55787;52.678;13.314;2022-12-18T01:22:48;35.60;;;8.70;;
68803;SDS011;55787;52.678;13.314;2022-12-18T01:25:15;43.20;;;11.07;;
68803;SDS011;55787;52.678;13.314;2022-12-18T01:27:41;35.53;;;9.60;;
68803;SDS011;55787;52.678;13.314;2022-12-18T01:30:09;43.80;;;11.43;;
68803;SDS011;55787;52.678;13.314;2022-12-18T01:32:36;37.92;;;9.27;;
68803;SDS011;55787;52.678;13.314;2022-12-18T01:35:03;41.67;;;9.73;;
68803;SDS011;55787;52.678;13.314;2022-12-18T01:37:30;38.95;;;10.15;;
68803;SDS011;55787;52.678;13.314;2022-12-18T01:39:57;40.53;;;9.80;;
68803;SDS011;55787;52.678;13.314;2022-12-18T01:42:23;36.00;;;8.50;;
68803;SDS011;55787;52.678;13.314;2022-12-18T01:45:21;36.42;;;9.20;;
68803;SDS011;55787;52.678;13.314;2022-12-18T01:47:52;39.17;;;8.38;;
68803;SDS011;55787;52.678;13.314;2022-12-18T01:50:22;25.42;;;6.30;;
68803;SDS011;55787;52.678;13.314;2022-12-18T01:55:23;38.97;;;9.30;;
68803;SDS011;55787;52.678;13.314;2022-12-18T01:57:54;32.50;;;8.45;;
68803;SDS011;55787;52.678;13.314;2022-12-18T02:00:22;17.83;;;4.25;;
68803;SDS011;55787;52.678;13.314;2022-12-18T02:02:51;34.42;;;8.68;;
68803;SDS011;55787;52.678;13.314;2022-12-18T02:05:22;38.67;;;9.40;;
68803;SDS011;55787;52.678;13.314;2022-12-18T02:08:03;41.00;;;9.00;;
68803;SDS011;55787;52.678;13.314;2022-12-18T02:10:43;33.60;;;7.97;;
68803;SDS011;55787;52.678;13.314;2022-12-18T02:16:26;36.83;;;9.75;;
68803;SDS011;55787;52.678;13.314;2022-12-18T02:18:55;35.10;;;8.48;;
68803;SDS011;55787;52.678;13.314;2022-12-18T02:26:55;33.53;;;8.38;;
68803;SDS011;55787;52.678;13.314;2022-12-18T02:29:26;35.17;;;9.52;;
68803;SDS011;55787;52.678;13.314;2022-12-18T02:32:06;40.15;;;10.05;;
68803;SDS011;55787;52.678;13.314;2022-12-18T02:34:37;32.47;;;8.20;;
68803;SDS011;55787;52.678;13.314;2022-12-18T02:37:06;37.50;;;9.27;;
68803;SDS011;55787;52.678;13.314;2022-12-18T02:39:37;38.38;;;10.00;;
68803;SDS011;55787;52.678;13.314;2022-12-18T02:42:06;37.92;;;9.60;;
68803;SDS011;55787;52.678;13.314;2022-12-18T02:44:34;40.00;;;9.70;;
68803;SDS011;55787;52.678;13.314;2022-12-18T02:47:08;42.03;;;10.13;;
68803;SDS011;55787;52.678;13.314;2022-12-18T02:57:43;36.95;;;9.60;;
68803;SDS011;55787;52.678;13.314;2022-12-18T03:00:20;36.50;;;9.13;;
68803;SDS011;55787;52.678;13.314;2022-12-18T03:05:30;34.47;;;8.75;;
68803;SDS011;55787;52.678;13.314;2022-12-18T03:08:06;36.70;;;8.40;;
68803;SDS011;55787;52.678;13.314;2022-12-18T03:10:45;38.03;;;9.15;;
68803;SDS011;55787;52.678;13.314;2022-12-18T03:13:39;26.67;;;6.43;;
68803;SDS011;55787;52.678;13.314;2022-12-18T03:16:11;37.85;;;9.07;;
68803;SDS011;55787;52.678;13.314;2022-12-18T03:18:47;41.75;;;10.52;;
68803;SDS011;55787;52.678;13.314;2022-12-18T03:21:19;39.45;;;10.38;;
68803;SDS011;55787;52.678;13.314;2022-12-18T03:23:53;40.08;;;9.18;;
68803;SDS011;55787;52.678;13.314;2022-12-18T03:26:22;22.40;;;6.77;;
68803;SDS011;55787;52.678;13.314;2022-12-18T03:29:06;36.78;;;8.77;;
68803;SDS011;55787;52.678;13.314;2022-12-18T03:31:36;37.05;;;9.65;;
68803;SDS011;55787;52.678;13.314;2022-12-18T03:34:09;36.17;;;8.98;;
68803;SDS011;55787;52.678;13.314;2022-12-18T03:36:39;37.53;;;9.75;;
68803;SDS011;55787;52.678;13.314;2022-12-18T03:39:06;40.93;;;10.23;;
68803;SDS011;55787;52.678;13.314;2022-12-18T03:41:34;46.03;;;10.93;;
68803;SDS011;55787;52.678;13.314;2022-12-18T03:44:13;38.78;;;10.15;;
68803;SDS011;55787;52.678;13.314;2022-12-18T03:47:13;36.88;;;9.15;;
68803;SDS011;55787;52.678;13.314;2022-12-18T03:52:20;35.10;;;9.17;;
68803;SDS011;55787;52.678;13.314;2022-12-18T03:54:54;35.85;;;8.13;;
68803;SDS011;55787;52.678;13.314;2022-12-18T03:57:25;43.60;;;9.55;;
68803;SDS011;55787;52.678;13.314;2022-12-18T03:59:56;36.17;;;8.85;;
68803;SDS011;55787;52.678;13.314;2022-12-18T04:02:26;36.53;;;8.65;;
68803;SDS011;55787;52.678;13.314;2022-12-18T04:04:56;39.70;;;9.67;;
68803;SDS011;55787;52.678;13.314;2022-12-18T04:07:26;42.65;;;9.65;;
68803;SDS011;55787;52.678;13.314;2022-12-18T04:09:54;38.67;;;9.07;;
68803;SDS011;55787;52.678;13.314;2022-12-18T04:12:24;41.10;;;10.20;;
68803;SDS011;55787;52.678;13.314;2022-12-18T04:14:52;42.13;;;9.52;;
68803;SDS011;55787;52.678;13.314;2022-12-18T04:17:19;41.50;;;10.57;;
68803;SDS011;55787;52.678;13.314;2022-12-18T04:19:45;38.10;;;9.27;;
68803;SDS011;55787;52.678;13.314;2022-12-18T04:22:12;35.10;;;7.93;;
68803;SDS011;55787;52.678;13.314;2022-12-18T04:24:39;25.98;;;6.45;;
68803;SDS011;55787;52.678;13.314;2022-12-18T04:27:05;39.67;;;11.20;;
68803;SDS011;55787;52.678;13.314;2022-12-18T04:29:32;38.73;;;8.10;;
68803;SDS011;55787;52.678;13.314;2022-12-18T04:31:59;38.67;;;10.30;;
68803;SDS011;55787;52.678;13.314;2022-12-18T04:34:26;39.67;;;9.15;;
68803;SDS011;55787;52.678;13.314;2022-12-18T04:36:54;37.72;;;10.32;;
68803;SDS011;55787;52.678;13.314;2022-12-18T04:39:21;42.67;;;9.23;;
68803;SDS011;55787;52.678;13.314;2022-12-18T04:41:47;42.73;;;10.07;;
68803;SDS011;55787;52.678;13.314;2022-12-18T04:44:14;50.40;;;11.60;;
68803;SDS011;55787;52.678;13.314;2022-12-18T04:46:41;48.92;;;10.52;;
68803;SDS011;55787;52.678;13.314;2022-12-18T04:49:08;42.58;;;10.60;;
68803;SDS011;55787;52.678;13.314;2022-12-18T04:51:36;50.97;;;11.15;;
68803;SDS011;55787;52.678;13.314;2022-12-18T04:54:03;52.87;;;10.90;;
68803;SDS011;55787;52.678;13.314;2022-12-18T04:56:30;55.08;;;10.40;;
68803;SDS011;55787;52.678;13.314;2022-12-18T04:58:57;49.35;;;12.23;;
68803;SDS011;55787;52.678;13.314;2022-12-18T05:01:24;50.97;;;11.57;;
68803;SDS011;55787;52.678;13.314;2022-12-18T05:03:59;44.25;;;10.05;;
68803;SDS011;55787;52.678;13.314;2022-12-18T05:06:26;38.13;;;8.63;;
68803;SDS011;55787;52.678;13.314;2022-12-18T05:08:53;39.53;;;9.55;;
68803;SDS011;55787;52.678;13.314;2022-12-18T05:11:19;53.17;;;12.07;;
68803;SDS011;55787;52.678;13.314;2022-12-18T05:13:46;55.53;;;13.60;;
68803;SDS011;55787;52.678;13.314;2022-12-18T05:16:14;54.45;;;13.32;;
68803;SDS011;55787;52.678;13.314;2022-12-18T05:18:40;52.67;;;11.80;;
68803;SDS011;55787;52.678;13.314;2022-12-18T05:21:07;55.03;;;11.38;;
68803;SDS011;55787;52.678;13.314;2022-12-18T05:23:34;51.97;;;12.32;;
68803;SDS011;55787;52.678;13.314;2022-12-18T05:26:02;50.90;;;11.70;;
68803;SDS011;55787;52.678;13.314;2022-12-18T05:28:31;37.63;;;9.63;;
68803;SDS011;55787;52.678;13.314;2022-12-18T05:30:59;51.37;;;12.87;;
68803;SDS011;55787;52.678;13.314;2022-12-18T05:33:29;41.30;;;9.48;;
68803;SDS011;55787;52.678;13.314;2022-12-18T05:35:58;56.00;;;11.63;;
68803;SDS011;55787;52.678;13.314;2022-12-18T05:38:27;54.10;;;12.23;;
68803;SDS011;55787;52.678;13.314;2022-12-18T05:40:55;52.30;;;12.73;;
68803;SDS011;55787;52.678;13.314;2022-12-18T05:43:23;56.17;;;11.93;;
68803;SDS011;55787;52.678;13.314;2022-12-18T05:45:51;46.30;;;11.05;;
68803;SDS011;55787;52.678;13.314;2022-12-18T05:48:19;51.47;;;11.43;;
68803;SDS011;55787;52.678;13.314;2022-12-18T05:50:47;52.10;;;11.88;;
68803;SDS011;55787;52.678;13.314;2022-12-18T05:53:16;51.50;;;11.95;;
68803;SDS011;55787;52.678;13.314;2022-12-18T05:55:44;53.17;;;11.73;;
68803;SDS011;55787;52.678;13.314;2022-12-18T05:58:12;51.67;;;11.98;;
68803;SDS011;55787;52.678;13.314;2022-12-18T06:00:41;49.33;;;11.10;;
68803;SDS011;55787;52.678;13.314;2022-12-18T06:03:10;48.53;;;11.30;;
68803;SDS011;55787;52.678;13.314;2022-12-18T06:05:39;41.08;;;10.68;;
68803;SDS011;55787;52.678;13.314;2022-12-18T06:08:08;46.33;;;9.70;;
68803;SDS011;55787;52.678;13.314;2022-12-18T06:10:35;45.35;;;10.15;;
68803;SDS011;55787;52.678;13.314;2022-12-18T06:13:02;47.13;;;10.07;;
68803;SDS011;55787;52.678;13.314;2022-12-18T06:15:29;44.42;;;10.30;;
68803;SDS011;55787;52.678;13.314;2022-12-18T06:17:55;36.83;;;8.70;;
68803;SDS011;55787;52.678;13.314;2022-12-18T06:20:22;42.27;;;9.57;;
68803;SDS011;55787;52.678;13.314;2022-12-18T06:22:54;40.63;;;9.93;;
68803;SDS011;55787;52.678;13.314;2022-12-18T06:25:20;33.50;;;7.70;;
68803;SDS011;55787;52.678;13.314;2022-12-18T06:27:47;40.40;;;9.50;;
68803;SDS011;55787;52.678;13.314;2022-12-18T06:30:14;42.47;;;10.55;;
68803;SDS011;55787;52.678;13.314;2022-12-18T06:32:41;38.07;;;8.13;;
68803;SDS011;55787;52.678;13.314;2022-12-18T06:35:07;39.95;;;10.45;;
68803;SDS011;55787;52.678;13.314;2022-12-18T06:37:34;46.83;;;10.65;;
68803;SDS011;55787;52.678;13.314;2022-12-18T06:40:01;45.72;;;11.07;;
68803;SDS011;55787;52.678;13.314;2022-12-18T06:42:28;49.30;;;10.45;;
68803;SDS011;55787;52.678;13.314;2022-12-18T06:44:55;36.67;;;8.87;;
68803;SDS011;55787;52.678;13.314;2022-12-18T06:47:21;45.83;;;10.38;;
68803;SDS011;55787;52.678;13.314;2022-12-18T06:49:48;45.80;;;11.07;;
68803;SDS011;55787;52.678;13.314;2022-12-18T06:52:16;44.70;;;10.55;;
68803;SDS011;55787;52.678;13.314;2022-12-18T06:54:42;44.78;;;9.65;;
68803;SDS011;55787;52.678;13.314;2022-12-18T06:57:09;38.63;;;9.40;;
68803;SDS011;55787;52.678;13.314;2022-12-18T06:59:35;36.97;;;9.07;;
68803;SDS011;55787;52.678;13.314;2022-12-18T07:02:02;45.10;;;10.75;;
68803;SDS011;55787;52.678;13.314;2022-12-18T07:04:29;43.38;;;10.68;;
68803;SDS011;55787;52.678;13.314;2022-12-18T07:06:56;37.55;;;9.35;;
68803;SDS011;55787;52.678;13.314;2022-12-18T07:09:23;39.90;;;10.20;;
68803;SDS011;55787;52.678;13.314;2022-12-18T07:11:51;36.70;;;8.70;;
68803;SDS011;55787;52.678;13.314;2022-12-18T07:14:18;40.53;;;9.65;;
68803;SDS011;55787;52.678;13.314;2022-12-18T07:16:44;41.05;;;9.68;;
68803;SDS011;55787;52.678;13.314;2022-12-18T07:19:11;28.67;;;7.00;;
68803;SDS011;55787;52.678;13.314;2022-12-18T07:21:38;39.57;;;9.47;;
68803;SDS011;55787;52.678;13.314;2022-12-18T07:24:04;38.90;;;9.02;;
68803;SDS011;55787;52.678;13.314;2022-12-18T07:26:31;40.30;;;9.70;;
68803;SDS011;55787;52.678;13.314;2022-12-18T07:28:58;37.85;;;9.95;;
68803;SDS011;55787;52.678;13.314;2022-12-18T07:31:25;42.17;;;10.57;;
68803;SDS011;55787;52.678;13.314;2022-12-18T07:33:53;39.77;;;9.93;;
68803;SDS011;55787;52.678;13.314;2022-12-18T07:36:20;40.17;;;8.55;;
68803;SDS011;55787;52.678;13.314;2022-12-18T07:38:47;39.25;;;10.00;;
68803;SDS011;55787;52.678;13.314;2022-12-18T07:41:15;42.55;;;10.65;;
68803;SDS011;55787;52.678;13.314;2022-12-18T07:43:42;36.28;;;9.02;;
68803;SDS011;55787;52.678;13.314;2022-12-18T07:46:10;42.97;;;9.97;;
68803;SDS011;55787;52.678;13.314;2022-12-18T07:48:39;42.60;;;10.23;;
68803;SDS011;55787;52.678;13.314;2022-12-18T07:51:06;37.53;;;8.75;;
68803;SDS011;55787;52.678;13.314;2022-12-18T07:53:34;42.80;;;10.25;;
68803;SDS011;55787;52.678;13.314;2022-12-18T07:56:04;42.67;;;10.13;;
68803;SDS011;55787;52.678;13.314;2022-12-18T07:58:52;40.43;;;9.90;;
68803;SDS011;55787;52.678;13.314;2022-12-18T08:01:19;44.90;;;10.32;;
68803;SDS011;55787;52.678;13.314;2022-12-18T08:03:47;43.35;;;11.02;;
68803;SDS011;55787;52.678;13.314;2022-12-18T08:06:14;45.47;;;11.90;;
68803;SDS011;55787;52.678;13.314;2022-12-18T08:08:41;31.55;;;7.55;;
68803;SDS011;55787;52.678;13.314;2022-12-18T08:11:08;48.13;;;10.97;;
68803;SDS011;55787;52.678;13.314;2022-12-18T08:13:35;40.97;;;10.95;;
68803;SDS011;55787;52.678;13.314;2022-12-18T08:16:03;42.67;;;10.57;;
68803;SDS011;55787;52.678;13.314;2022-12-18T08:18:32;45.55;;;11.10;;
68803;SDS011;55787;52.678;13.314;2022-12-18T08:23:57;40.03;;;10.90;;
68803;SDS011;55787;52.678;13.314;2022-12-18T08:26:26;43.45;;;10.10;;
68803;SDS011;55787;52.678;13.314;2022-12-18T08:28:55;28.42;;;6.82;;
68803;SDS011;55787;52.678;13.314;2022-12-18T08:31:22;38.15;;;9.63;;
68803;SDS011;55787;52.678;13.314;2022-12-18T08:33:50;34.67;;;8.73;;
68803;SDS011;55787;52.678;13.314;2022-12-18T08:36:19;45.10;;;10.43;;
68803;SDS011;55787;52.678;13.314;2022-12-18T08:38:46;41.00;;;9.43;;
68803;SDS011;55787;52.678;13.314;2022-12-18T08:41:14;40.10;;;10.65;;
68803;SDS011;55787;52.678;13.314;2022-12-18T08:43:42;45.28;;;10.60;;
68803;SDS011;55787;52.678;13.314;2022-12-18T08:46:31;44.35;;;9.55;;
68803;SDS011;55787;52.678;13.314;2022-12-18T08:49:00;42.63;;;11.87;;
68803;SDS011;55787;52.678;13.314;2022-12-18T08:51:28;30.38;;;7.90;;
68803;SDS011;55787;52.678;13.314;2022-12-18T08:53:54;43.63;;;10.50;;
68803;SDS011;55787;52.678;13.314;2022-12-18T08:56:21;46.05;;;10.85;;
68803;SDS011;55787;52.678;13.314;2022-12-18T08:58:50;44.08;;;11.00;;
68803;SDS011;55787;52.678;13.314;2022-12-18T09:01:18;42.67;;;9.30;;
68803;SDS011;55787;52.678;13.314;2022-12-18T09:03:45;39.65;;;10.98;;
68803;SDS011;55787;52.678;13.314;2022-12-18T09:06:13;35.30;;;9.65;;
68803;SDS011;55787;52.678;13.314;2022-12-18T09:08:42;45.97;;;10.25;;
68803;SDS011;55787;52.678;13.314;2022-12-18T09:11:12;41.70;;;11.50;;
68803;SDS011;55787;52.678;13.314;2022-12-18T09:13:40;38.80;;;9.50;;
68803;SDS011;55787;52.678;13.314;2022-12-18T09:16:08;32.42;;;8.98;;
68803;SDS011;55787;52.678;13.314;2022-12-18T09:18:34;37.92;;;9.60;;
68803;SDS011;55787;52.678;13.314;2022-12-18T09:21:07;31.98;;;9.00;;
68803;SDS011;55787;52.678;13.314;2022-12-18T09:23:37;41.88;;;10.38;;
68803;SDS011;55787;52.678;13.314;2022-12-18T09:26:04;47.10;;;11.17;;
68803;SDS011;55787;52.678;13.314;2022-12-18T09:28:31;42.90;;;11.95;;
68803;SDS011;55787;52.678;13.314;2022-12-18T09:30:57;43.75;;;10.82;;
68803;SDS011;55787;52.678;13.314;2022-12-18T09:33:24;42.75;;;11.40;;
68803;SDS011;55787;52.678;13.314;2022-12-18T09:35:51;43.25;;;10.15;;
68803;SDS011;55787;52.678;13.314;2022-12-18T09:38:18;39.43;;;10.17;;
68803;SDS011;55787;52.678;13.314;2022-12-18T09:40:52;37.85;;;10.52;;
68803;SDS011;55787;52.678;13.314;2022-12-18T09:43:29;44.00;;;10.85;;
68803;SDS011;55787;52.678;13.314;2022-12-18T09:46:03;40.90;;;10.50;;
68803;SDS011;55787;52.678;13.314;2022-12-18T09:48:38;43.13;;;11.73;;
68803;SDS011;55787;52.678;13.314;2022-12-18T09:51:11;40.87;;;10.07;;
68803;SDS011;55787;52.678;13.314;2022-12-18T09:53:44;40.83;;;11.00;;
68803;SDS011;55787;52.678;13.314;2022-12-18T09:56:18;34.72;;;9.52;;
68803;SDS011;55787;52.678;13.314;2022-12-18T09:58:54;22.33;;;6.10;;
68803;SDS011;55787;52.678;13.314;2022-12-18T10:01:25;32.63;;;8.63;;
68803;SDS011;55787;52.678;13.314;2022-12-18T10:04:08;33.50;;;7.60;;
68803;SDS011;55787;52.678;13.314;2022-12-18T10:06:36;34.72;;;10.07;;
68803;SDS011;55787;52.678;13.314;2022-12-18T10:12:27;32.22;;;9.05;;
68803;SDS011;55787;52.678;13.314;2022-12-18T10:15:23;29.95;;;10.73;;
68803;SDS011;55787;52.678;13.314;2022-12-18T10:18:27;37.47;;;10.30;;
68803;SDS011;55787;52.678;13.314;2022-12-18T10:21:14;36.55;;;9.95;;
68803;SDS011;55787;52.678;13.314;2022-12-18T10:23:55;31.48;;;8.93;;
68803;SDS011;55787;52.678;13.314;2022-12-18T10:26:34;35.42;;;9.65;;
68803;SDS011;55787;52.678;13.314;2022-12-18T10:29:03;34.92;;;9.48;;
68803;SDS011;55787;52.678;13.314;2022-12-18T10:31:37;39.77;;;9.70;;
68803;SDS011;55787;52.678;13.314;2022-12-18T10:34:04;36.05;;;9.88;;
68803;SDS011;55787;52.678;13.314;2022-12-18T10:36:30;20.38;;;6.68;;
68803;SDS011;55787;52.678;13.314;2022-12-18T10:39:13;31.63;;;9.43;;
68803;SDS011;55787;52.678;13.314;2022-12-18T10:41:42;36.33;;;9.52;;
68803;SDS011;55787;52.678;13.314;2022-12-18T10:44:21;33.13;;;10.43;;
68803;SDS011;55787;52.678;13.314;2022-12-18T10:46:50;39.55;;;9.18;;
68803;SDS011;55787;52.678;13.314;2022-12-18T10:52:06;31.63;;;9.18;;
68803;SDS011;55787;52.678;13.314;2022-12-18T10:54:48;35.28;;;9.20;;
68803;SDS011;55787;52.678;13.314;2022-12-18T10:59:59;37.03;;;10.48;;
68803;SDS011;55787;52.678;13.314;2022-12-18T11:02:46;34.42;;;9.88;;
68803;SDS011;55787;52.678;13.314;2022-12-18T11:08:19;37.63;;;10.43;;
68803;SDS011;55787;52.678;13.314;2022-12-18T11:10:49;42.77;;;10.57;;
68803;SDS011;55787;52.678;13.314;2022-12-18T11:13:19;28.23;;;7.82;;
68803;SDS011;55787;52.678;13.314;2022-12-18T11:15:49;42.47;;;10.77;;
68803;SDS011;55787;52.678;13.314;2022-12-18T11:20:59;36.95;;;10.15;;
68803;SDS011;55787;52.678;13.314;2022-12-18T11:23:34;42.27;;;10.93;;
68803;SDS011;55787;52.678;13.314;2022-12-18T11:26:02;44.53;;;11.20;;
68803;SDS011;55787;52.678;13.314;2022-12-18T11:28:49;47.08;;;11.68;;
68803;SDS011;55787;52.678;13.314;2022-12-18T11:31:25;43.78;;;11.85;;
68803;SDS011;55787;52.678;13.314;2022-12-18T11:34:01;38.20;;;10.13;;
68803;SDS011;55787;52.678;13.314;2022-12-18T11:36:55;45.50;;;11.90;;
68803;SDS011;55787;52.678;13.314;2022-12-18T11:39:35;44.03;;;11.00;;
68803;SDS011;55787;52.678;13.314;2022-12-18T11:42:24;39.28;;;10.82;;
68803;SDS011;55787;52.678;13.314;2022-12-18T11:47:44;41.72;;;11.38;;
68803;SDS011;55787;52.678;13.314;2022-12-18T11:50:14;43.70;;;11.13;;
68803;SDS011;55787;52.678;13.314;2022-12-18T11:52:43;44.35;;;12.25;;
68803;SDS011;55787;52.678;13.314;2022-12-18T11:55:12;39.63;;;10.52;;
68803;SDS011;55787;52.678;13.314;2022-12-18T12:00:26;37.65;;;10.38;;
68803;SDS011;55787;52.678;13.314;2022-12-18T12:08:38;34.13;;;9.88;;
68803;SDS011;55787;52.678;13.314;2022-12-18T12:11:26;36.05;;;9.35;;
68803;SDS011;55787;52.678;13.314;2022-12-18T12:22:26;34.85;;;9.18;;
68803;SDS011;55787;52.678;13.314;2022-12-18T12:30:31;43.80;;;11.27;;
68803;SDS011;55787;52.678;13.314;2022-12-18T12:33:32;35.22;;;10.93;;
68803;SDS011;55787;52.678;13.314;2022-12-18T12:38:56;37.90;;;10.38;;
68803;SDS011;55787;52.678;13.314;2022-12-18T12:41:27;38.75;;;11.00;;
68803;SDS011;55787;52.678;13.314;2022-12-18T12:44:38;34.97;;;10.30;;
68803;SDS011;55787;52.678;13.314;2022-12-18T12:47:14;33.08;;;9.02;;
68803;SDS011;55787;52.678;13.314;2022-12-18T12:49:46;35.30;;;10.10;;
68803;SDS011;55787;52.678;13.314;2022-12-18T12:52:55;35.28;;;9.82;;
68803;SDS011;55787;52.678;13.314;2022-12-18T12:55:26;40.60;;;10.55;;
68803;SDS011;55787;52.678;13.314;2022-12-18T12:58:10;24.83;;;7.20;;
68803;SDS011;55787;52.678;13.314;2022-12-18T13:00:53;35.88;;;10.13;;
68803;SDS011;55787;52.678;13.314;2022-12-18T13:03:26;33.97;;;9.63;;
68803;SDS011;55787;52.678;13.314;2022-12-18T13:06:12;36.03;;;10.23;;
68803;SDS011;55787;52.678;13.314;2022-12-18T13:09:18;33.03;;;9.50;;
68803;SDS011;55787;52.678;13.314;2022-12-18T13:11:44;34.73;;;9.73;;
68803;SDS011;55787;52.678;13.314;2022-12-18T13:17:41;35.33;;;9.95;;
68803;SDS011;55787;52.678;13.314;2022-12-18T13:22:37;35.20;;;9.50;;
68803;SDS011;55787;52.678;13.314;2022-12-18T13:28:03;38.75;;;10.13;;
68803;SDS011;55787;52.678;13.314;2022-12-18T13:40:55;36.95;;;9.82;;
68803;SDS011;55787;52.678;13.314;2022-12-18T13:43:47;30.27;;;8.48;;
68803;SDS011;55787;52.678;13.314;2022-12-18T13:46:23;20.45;;;6.00;;
68803;SDS011;55787;52.678;13.314;2022-12-18T13:48:55;28.70;;;9.02;;
68803;SDS011;55787;52.678;13.314;2022-12-18T13:51:24;35.13;;;9.33;;
68803;SDS011;55787;52.678;13.314;2022-12-18T13:53:59;23.20;;;7.28;;
68803;SDS011;55787;52.678;13.314;2022-12-18T13:56:30;30.30;;;9.43;;
68803;SDS011;55787;52.678;13.314;2022-12-18T14:01:42;23.00;;;6.72;;
68803;SDS011;55787;52.678;13.314;2022-12-18T14:07:02;32.53;;;9.07;;
68803;SDS011;55787;52.678;13.314;2022-12-18T14:09:37;21.65;;;6.72;;
68803;SDS011;55787;52.678;13.314;2022-12-18T14:12:14;32.15;;;9.95;;
68803;SDS011;55787;52.678;13.314;2022-12-18T14:15:06;27.95;;;9.30;;
68803;SDS011;55787;52.678;13.314;2022-12-18T14:17:47;33.17;;;9.07;;
68803;SDS011;55787;52.678;13.314;2022-12-18T14:20:14;18.60;;;5.60;;
68803;SDS011;55787;52.678;13.314;2022-12-18T14:22:48;28.60;;;7.43;;
68803;SDS011;55787;52.678;13.314;2022-12-18T14:25:17;25.15;;;7.15;;
68803;SDS011;55787;52.678;13.314;2022-12-18T14:27:47;19.48;;;6.03;;
68803;SDS011;55787;52.678;13.314;2022-12-18T14:30:28;19.80;;;6.07;;
68803;SDS011;55787;52.678;13.314;2022-12-18T14:35:55;30.52;;;8.77;;
68803;SDS011;55787;52.678;13.314;2022-12-18T14:38:37;17.25;;;4.43;;
68803;SDS011;55787;52.678;13.314;2022-12-18T14:41:06;29.58;;;8.00;;
68803;SDS011;55787;52.678;13.314;2022-12-18T14:43:36;18.43;;;6.07;;
68803;SDS011;55787;52.678;13.314;2022-12-18T14:46:05;30.30;;;8.73;;
68803;SDS011;55787;52.678;13.314;2022-12-18T14:48:52;32.95;;;9.38;;
68803;SDS011;55787;52.678;13.314;2022-12-18T14:51:22;31.83;;;9.65;;
68803;SDS011;55787;52.678;13.314;2022-12-18T14:53:57;30.67;;;9.15;;
68803;SDS011;55787;52.678;13.314;2022-12-18T14:56:34;26.57;;;7.70;;
68803;SDS011;55787;52.678;13.314;2022-12-18T14:59:06;30.02;;;8.23;;
68803;SDS011;55787;52.678;13.314;2022-12-18T15:01:49;33.10;;;9.35;;
68803;SDS011;55787;52.678;13.314;2022-12-18T15:04:28;33.38;;;10.55;;
68803;SDS011;55787;52.678;13.314;2022-12-18T15:09:37;28.03;;;7.50;;
68803;SDS011;55787;52.678;13.314;2022-12-18T15:12:15;39.70;;;11.30;;
68803;SDS011;55787;52.678;13.314;2022-12-18T15:14:59;33.45;;;10.80;;
68803;SDS011;55787;52.678;13.314;2022-12-18T15:17:25;38.75;;;11.23;;
68803;SDS011;55787;52.678;13.314;2022-12-18T15:19:58;34.05;;;10.73;;
68803;SDS011;55787;52.678;13.314;2022-12-18T15:22:27;32.73;;;9.80;;
68803;SDS011;55787;52.678;13.314;2022-12-18T15:24:56;34.15;;;9.80;;
68803;SDS011;55787;52.678;13.314;2022-12-18T15:27:33;36.75;;;11.00;;
68803;SDS011;55787;52.678;13.314;2022-12-18T15:32:36;38.05;;;11.23;;
68803;SDS011;55787;52.678;13.314;2022-12-18T15:37:34;31.88;;;10.50;;
68803;SDS011;55787;52.678;13.314;2022-12-18T15:40:00;33.55;;;10.35;;
68803;SDS011;55787;52.678;13.314;2022-12-18T15:42:28;34.58;;;11.60;;
68803;SDS011;55787;52.678;13.314;2022-12-18T15:45:14;23.33;;;7.78;;
68803;SDS011;55787;52.678;13.314;2022-12-18T15:47:43;23.13;;;8.30;;
68803;SDS011;55787;52.678;13.314;2022-12-18T15:50:10;33.20;;;11.23;;
68803;SDS011;55787;52.678;13.314;2022-12-18T15:52:40;35.00;;;10.02;;
68803;SDS011;55787;52.678;13.314;2022-12-18T15:55:19;25.33;;;7.70;;
68803;SDS011;55787;52.678;13.314;2022-12-18T15:58:07;28.13;;;9.63;;
68803;SDS011;55787;52.678;13.314;2022-12-18T16:00:36;22.63;;;6.47;;
68803;SDS011;55787;52.678;13.314;2022-12-18T16:03:04;31.25;;;10.48;;
68803;SDS011;55787;52.678;13.314;2022-12-18T16:05:32;27.63;;;8.82;;
68803;SDS011;55787;52.678;13.314;2022-12-18T16:07:59;22.50;;;7.78;;
68803;SDS011;55787;52.678;13.314;2022-12-18T16:10:25;25.33;;;7.65;;
68803;SDS011;55787;52.678;13.314;2022-12-18T16:12:52;17.93;;;6.33;;
68803;SDS011;55787;52.678;13.314;2022-12-18T16:15:19;15.48;;;5.05;;
68803;SDS011;55787;52.678;13.314;2022-12-18T16:17:50;29.42;;;9.88;;
68803;SDS011;55787;52.678;13.314;2022-12-18T16:20:19;29.27;;;8.63;;
68803;SDS011;55787;52.678;13.314;2022-12-18T16:22:47;32.38;;;11.10;;
68803;SDS011;55787;52.678;13.314;2022-12-18T16:25:19;23.87;;;8.27;;